Sirios Cement IV — 9HQE8 — position and weather

sailwx.info

Track history (hours):
 
Tides and Currents Weather Stations Pressure Air Temp Water Temp Dewpoint Dewpoint Depression Visibility Wind Speed Wind Dir Waves Ship Positions

Sirios Cement IV

Last reported at 2016-May-24 14:13 UTC. Time now 2016-May-28 10:02 UTC.
Position N 45°09' E 012°37'.

Length 134 m; draft 5.8 m.

Type: Cargo ship. MMSI: 256278000.

Date/timePositionNaut miles runAvg speedWind from/ knotsBaromVisibWave heightAir tempDewpointWater temp
2016-May-24 14:13N 45°09' E 012°37'6 9.0
2016-May-24 13:33N 45°13' E 012°30'10 9.6
2016-May-24 12:33N 45°20' E 012°21'7 6.9
2016-May-24 11:34N 45°26' E 012°16'2 0.6
2016-May-24 08:05N 45°28' E 012°15'0 0.0
2016-May-23 18:26N 45°28' E 012°15'0 0.0
2016-May-23 16:05N 45°28' E 012°15'0 0.0
2016-May-23 14:20N 45°28' E 012°15'0 0.0
2016-May-23 11:29N 45°28' E 012°15'  
2016-May-20 22:32N 45°28' E 012°15'0 0.0
2016-May-20 20:14N 45°28' E 012°15'0 0.0
2016-May-20 19:32N 45°28' E 012°15'0 0.0
2016-May-20 11:23N 45°28' E 012°15'0 0.0
2016-May-20 08:23N 45°28' E 012°15'0 0.0
2016-May-20 07:32N 45°28' E 012°15'0 0.0
2016-May-20 06:29N 45°28' E 012°15'0 0.0
2016-May-20 05:32N 45°28' E 012°15'0 0.0
2016-May-20 04:29N 45°28' E 012°15'0 0.0
2016-May-20 03:32N 45°28' E 012°15'0 0.0
2016-May-20 02:32N 45°28' E 012°15'0 0.0
2016-May-20 01:33N 45°28' E 012°15'0 0.0
2016-May-20 00:30N 45°28' E 012°15'0 0.0
2016-May-19 23:30N 45°28' E 012°15'0 0.0
2016-May-19 22:31N 45°28' E 012°15'0 0.0
2016-May-19 21:33N 45°28' E 012°15'0 0.0
2016-May-19 20:31N 45°28' E 012°15'0 0.0
2016-May-19 19:30N 45°28' E 012°15'0 0.0
2016-May-19 18:27N 45°28' E 012°15'0 0.0
2016-May-19 17:33N 45°28' E 012°15'0 0.0
2016-May-19 16:33N 45°28' E 012°15'0 0.0
2016-May-19 15:33N 45°28' E 012°15'0 0.0
2016-May-19 14:15N 45°28' E 012°15'0 0.0
2016-May-19 13:33N 45°28' E 012°15'0 0.0
2016-May-19 12:33N 45°28' E 012°15'0 0.0
2016-May-19 11:33N 45°28' E 012°15'0 0.0
2016-May-19 10:30N 45°28' E 012°15'0 0.0
2016-May-19 09:30N 45°28' E 012°15'0 0.0
2016-May-19 08:33N 45°28' E 012°15'0 0.0
2016-May-19 07:33N 45°28' E 012°15'0 0.0
2016-May-19 06:27N 45°28' E 012°15'1 0.7
2016-May-19 05:33N 45°27' E 012°16'7 6.7
2016-May-19 04:33N 45°21' E 012°17'6 5.8
2016-May-19 03:33N 45°22' E 012°25'0 0.3
2016-May-19 02:33N 45°22' E 012°25'0 0.0
2016-May-19 01:33N 45°22' E 012°25'0 0.0
2016-May-19 00:33N 45°22' E 012°25'0 0.1
2016-May-18 23:33N 45°22' E 012°25'0 0.0
2016-May-18 22:33N 45°22' E 012°25'0 0.0
2016-May-18 21:33N 45°22' E 012°25'0 0.1
2016-May-18 20:33N 45°22' E 012°25'0 0.0
2016-May-18 19:33N 45°22' E 012°25'0 0.0
2016-May-18 18:33N 45°22' E 012°25'0 0.0
2016-May-18 17:33N 45°22' E 012°25'4 3.7
2016-May-18 16:33N 45°20' E 012°29'9 9.3
2016-May-18 15:33N 45°13' E 012°39'  
Track history (hours):
 
Tides and Currents Weather Stations Pressure Air Temp Water Temp Dewpoint Dewpoint Depression Visibility Wind Speed Wind Dir Waves Ship Positions

Sirios Cement IV

Last reported at 2016-May-24 14:13 UTC. Time now 2016-May-28 10:02 UTC.
Position N 45°09' E 012°37'.

Length 134 m; draft 5.8 m.

Type: Cargo ship. MMSI: 256278000.

Date/timePositionNaut miles runAvg speedWind from/ knotsBaromVisibWave heightAir tempDewpointWater temp
2016-May-24 14:13N 45°09' E 012°37'6 9.0
2016-May-24 13:33N 45°13' E 012°30'10 9.6
2016-May-24 12:33N 45°20' E 012°21'7 6.9
2016-May-24 11:34N 45°26' E 012°16'2 0.6
2016-May-24 08:05N 45°28' E 012°15'0 0.0
2016-May-23 18:26N 45°28' E 012°15'0 0.0
2016-May-23 16:05N 45°28' E 012°15'0 0.0
2016-May-23 14:20N 45°28' E 012°15'0 0.0
2016-May-23 11:29N 45°28' E 012°15'  
2016-May-20 22:32N 45°28' E 012°15'0 0.0
2016-May-20 20:14N 45°28' E 012°15'0 0.0
2016-May-20 19:32N 45°28' E 012°15'0 0.0
2016-May-20 11:23N 45°28' E 012°15'0 0.0
2016-May-20 08:23N 45°28' E 012°15'0 0.0
2016-May-20 07:32N 45°28' E 012°15'0 0.0
2016-May-20 06:29N 45°28' E 012°15'0 0.0
2016-May-20 05:32N 45°28' E 012°15'0 0.0
2016-May-20 04:29N 45°28' E 012°15'0 0.0
2016-May-20 03:32N 45°28' E 012°15'0 0.0
2016-May-20 02:32N 45°28' E 012°15'0 0.0
2016-May-20 01:33N 45°28' E 012°15'0 0.0
2016-May-20 00:30N 45°28' E 012°15'0 0.0
2016-May-19 23:30N 45°28' E 012°15'0 0.0
2016-May-19 22:31N 45°28' E 012°15'0 0.0
2016-May-19 21:33N 45°28' E 012°15'0 0.0
2016-May-19 20:31N 45°28' E 012°15'0 0.0
2016-May-19 19:30N 45°28' E 012°15'0 0.0
2016-May-19 18:27N 45°28' E 012°15'0 0.0
2016-May-19 17:33N 45°28' E 012°15'0 0.0
2016-May-19 16:33N 45°28' E 012°15'0 0.0
2016-May-19 15:33N 45°28' E 012°15'0 0.0
2016-May-19 14:15N 45°28' E 012°15'0 0.0
2016-May-19 13:33N 45°28' E 012°15'0 0.0
2016-May-19 12:33N 45°28' E 012°15'0 0.0
2016-May-19 11:33N 45°28' E 012°15'0 0.0
2016-May-19 10:30N 45°28' E 012°15'0 0.0
2016-May-19 09:30N 45°28' E 012°15'0 0.0
2016-May-19 08:33N 45°28' E 012°15'0 0.0
2016-May-19 07:33N 45°28' E 012°15'0 0.0
2016-May-19 06:27N 45°28' E 012°15'1 0.7
2016-May-19 05:33N 45°27' E 012°16'7 6.7
2016-May-19 04:33N 45°21' E 012°17'6 5.8
2016-May-19 03:33N 45°22' E 012°25'0 0.3
2016-May-19 02:33N 45°22' E 012°25'0 0.0
2016-May-19 01:33N 45°22' E 012°25'0 0.0
2016-May-19 00:33N 45°22' E 012°25'0 0.1
2016-May-18 23:33N 45°22' E 012°25'0 0.0
2016-May-18 22:33N 45°22' E 012°25'0 0.0
2016-May-18 21:33N 45°22' E 012°25'0 0.1
2016-May-18 20:33N 45°22' E 012°25'0 0.0
2016-May-18 19:33N 45°22' E 012°25'0 0.0
2016-May-18 18:33N 45°22' E 012°25'0 0.0
2016-May-18 17:33N 45°22' E 012°25'4 3.7
2016-May-18 16:33N 45°20' E 012°29'9 9.3
2016-May-18 15:33N 45°13' E 012°39'  

Dump ship's entire track history